createdAt,value
2022-10-18T00:00:18.686Z,9.60
2022-10-18T00:02:45.431Z,9.60
2022-10-18T00:05:12.446Z,9.50
2022-10-18T00:07:39.292Z,9.50
2022-10-18T00:10:06.553Z,9.50
2022-10-18T00:12:35.423Z,9.50
2022-10-18T00:15:03.506Z,9.40
2022-10-18T00:17:30.640Z,9.40
2022-10-18T00:19:57.612Z,9.40
2022-10-18T00:22:25.352Z,9.40
2022-10-18T00:24:51.983Z,9.40
2022-10-18T00:27:19.171Z,9.40
2022-10-18T00:29:46.062Z,9.40
2022-10-18T00:32:12.783Z,9.40
2022-10-18T00:34:40.338Z,9.40
2022-10-18T00:37:07.081Z,9.40
2022-10-18T00:39:33.841Z,9.40
2022-10-18T00:42:00.720Z,9.40
2022-10-18T00:44:27.463Z,9.30
2022-10-18T00:46:59.858Z,9.30
2022-10-18T00:49:48.613Z,9.30
2022-10-18T00:52:22.983Z,9.30
2022-10-18T00:54:52.543Z,9.20
2022-10-18T00:57:19.801Z,9.20
2022-10-18T00:59:47.376Z,9.20
2022-10-18T01:02:18.132Z,9.10
2022-10-18T01:04:48.688Z,9.10
2022-10-18T01:07:22.539Z,9.10
2022-10-18T01:10:07.179Z,9.10
2022-10-18T01:13:15.248Z,9.00
2022-10-18T01:16:05.736Z,9.00
2022-10-18T01:18:42.264Z,9.00
2022-10-18T01:21:24.872Z,8.90
2022-10-18T01:24:10.436Z,8.90
2022-10-18T01:27:01.852Z,8.90
2022-10-18T01:29:53.272Z,8.90
2022-10-18T01:32:27.171Z,8.80
2022-10-18T01:34:59.303Z,8.80
2022-10-18T01:37:28.107Z,8.80
2022-10-18T01:39:58.061Z,8.80
2022-10-18T01:42:25.320Z,8.80
2022-10-18T01:44:53.661Z,8.80
2022-10-18T01:47:21.544Z,8.70
2022-10-18T01:49:48.214Z,8.70
2022-10-18T01:52:16.711Z,8.70
2022-10-18T01:54:49.049Z,8.70
2022-10-18T01:57:24.020Z,8.70
2022-10-18T02:00:05.835Z,8.70
2022-10-18T02:02:55.538Z,8.60
2022-10-18T02:05:35.398Z,8.70
2022-10-18T02:08:22.809Z,8.60
2022-10-18T02:10:58.295Z,8.60
2022-10-18T02:13:29.038Z,8.60
2022-10-18T02:16:01.165Z,8.60
2022-10-18T02:18:36.213Z,8.60
2022-10-18T02:21:05.494Z,8.60
2022-10-18T02:23:33.966Z,8.60
2022-10-18T02:26:01.222Z,8.60
2022-10-18T02:28:28.192Z,8.60
2022-10-18T02:31:00.790Z,8.60
2022-10-18T02:33:45.716Z,8.60
2022-10-18T02:36:39.029Z,8.60
2022-10-18T02:39:14.379Z,8.60
2022-10-18T02:41:42.307Z,8.50
2022-10-18T02:44:09.514Z,8.50
2022-10-18T02:46:36.502Z,8.50
2022-10-18T02:49:03.429Z,8.50
2022-10-18T02:51:30.262Z,8.50
2022-10-18T02:53:56.942Z,8.50
2022-10-18T02:56:25.590Z,8.40
2022-10-18T02:58:52.287Z,8.40
2022-10-18T03:01:19.027Z,8.40
2022-10-18T03:03:45.847Z,8.40
2022-10-18T03:06:12.519Z,8.40
2022-10-18T03:08:39.591Z,8.30
2022-10-18T03:11:07.022Z,8.30
2022-10-18T03:13:36.423Z,8.30
2022-10-18T03:16:03.165Z,8.30
2022-10-18T03:18:29.843Z,8.30
2022-10-18T03:20:56.647Z,8.30
2022-10-18T03:23:23.337Z,8.20
2022-10-18T03:25:50.216Z,8.20
2022-10-18T03:28:16.958Z,8.20
2022-10-18T03:30:43.661Z,8.20
2022-10-18T03:33:10.349Z,8.20
2022-10-18T03:35:37.027Z,8.10
2022-10-18T03:38:03.766Z,8.10
2022-10-18T03:43:02.299Z,8.10
2022-10-18T03:45:31.328Z,8.10
2022-10-18T03:47:58.419Z,8.10
2022-10-18T03:50:26.174Z,8.10
2022-10-18T03:52:54.250Z,8.10
2022-10-18T03:55:20.964Z,8.00
2022-10-18T03:57:47.841Z,8.00
2022-10-18T04:00:14.725Z,8.00
2022-10-18T04:02:42.709Z,8.00
2022-10-18T04:05:09.758Z,8.00
2022-10-18T04:10:08.618Z,7.90
2022-10-18T04:12:35.374Z,7.90
2022-10-18T04:15:02.783Z,7.90
2022-10-18T04:17:29.641Z,7.80
2022-10-18T04:19:56.756Z,7.80
2022-10-18T04:22:23.455Z,7.80
2022-10-18T04:24:50.267Z,7.80
2022-10-18T04:27:18.244Z,7.80
2022-10-18T04:29:45.024Z,7.80
2022-10-18T04:32:11.718Z,7.80
2022-10-18T04:34:38.568Z,7.80
2022-10-18T04:37:05.337Z,7.70
2022-10-18T04:39:32.026Z,7.70
2022-10-18T04:41:58.682Z,7.70
2022-10-18T04:44:25.469Z,7.70
2022-10-18T04:46:52.154Z,7.70
2022-10-18T04:49:18.958Z,7.70
2022-10-18T04:51:45.644Z,7.60
2022-10-18T04:54:12.647Z,7.60
2022-10-18T04:56:39.402Z,7.60
2022-10-18T04:59:06.098Z,7.60
2022-10-18T05:01:32.830Z,7.60
2022-10-18T05:03:59.590Z,7.60
2022-10-18T05:06:26.266Z,7.60
2022-10-18T05:08:53.018Z,7.60
2022-10-18T05:11:20.920Z,7.50
2022-10-18T05:13:50.100Z,7.50
2022-10-18T05:16:18.990Z,7.50
2022-10-18T05:18:45.686Z,7.50
2022-10-18T05:21:12.530Z,7.60
2022-10-18T05:23:39.892Z,7.60
2022-10-18T05:26:08.658Z,7.60
2022-10-18T05:28:40.530Z,7.60
2022-10-18T05:31:10.088Z,7.50
2022-10-18T05:33:38.805Z,7.50
2022-10-18T05:36:05.820Z,7.50
2022-10-18T05:38:32.705Z,7.50
2022-10-18T05:40:59.963Z,7.50
2022-10-18T05:43:29.806Z,7.50
2022-10-18T05:45:57.598Z,7.50
2022-10-18T05:48:25.112Z,7.50
2022-10-18T05:50:51.888Z,7.50
2022-10-18T05:56:08.645Z,7.60
2022-10-18T05:58:35.772Z,7.70
2022-10-18T06:01:04.803Z,7.70
2022-10-18T06:03:32.048Z,7.70
2022-10-18T06:06:06.598Z,7.70
2022-10-18T06:08:33.781Z,7.70
2022-10-18T06:11:00.694Z,7.80
2022-10-18T06:13:29.102Z,7.80
2022-10-18T06:15:58.019Z,7.90
2022-10-18T06:18:24.764Z,7.90
2022-10-18T06:20:57.902Z,8.00
2022-10-18T06:23:28.123Z,8.00
2022-10-18T06:26:00.097Z,8.10
2022-10-18T06:28:27.426Z,8.10
2022-10-18T06:30:57.017Z,8.20
2022-10-18T06:33:23.963Z,8.30
2022-10-18T06:36:15.482Z,8.40
2022-10-18T06:38:42.461Z,8.50
2022-10-18T06:41:09.687Z,8.60
2022-10-18T06:43:36.506Z,8.70
2022-10-18T06:46:07.713Z,8.80
2022-10-18T06:48:35.859Z,8.90
2022-10-18T06:51:04.879Z,9.00
2022-10-18T06:53:36.246Z,9.10
2022-10-18T06:56:07.671Z,9.20
2022-10-18T06:58:35.539Z,9.40
2022-10-18T07:01:14.331Z,9.50
2022-10-18T07:03:41.362Z,9.60
2022-10-18T07:06:10.502Z,9.80
2022-10-18T07:08:37.677Z,9.90
2022-10-18T07:11:05.388Z,10.10
2022-10-18T07:13:33.601Z,10.20
2022-10-18T07:16:06.001Z,10.30
2022-10-18T07:18:38.273Z,10.50
2022-10-18T07:21:11.875Z,10.70
2022-10-18T07:23:41.069Z,10.80
2022-10-18T07:26:13.850Z,11.00
2022-10-18T07:28:40.807Z,11.20
2022-10-18T07:31:09.293Z,11.30
2022-10-18T07:33:38.244Z,11.50
2022-10-18T07:36:07.533Z,11.70
2022-10-18T07:38:34.978Z,11.80
2022-10-18T07:41:04.269Z,12.10
2022-10-18T07:43:31.019Z,12.20
2022-10-18T07:46:00.435Z,12.40
2022-10-18T07:48:27.615Z,12.60
2022-10-18T07:51:00.154Z,12.80
2022-10-18T07:53:28.395Z,13.00
2022-10-18T07:56:05.947Z,13.30
2022-10-18T07:58:35.474Z,13.50
2022-10-18T08:01:08.632Z,13.70
2022-10-18T08:03:36.503Z,13.90
2022-10-18T08:06:05.338Z,14.00
2022-10-18T08:08:32.081Z,14.10
2022-10-18T08:11:04.694Z,14.30
2022-10-18T08:13:31.915Z,14.40
2022-10-18T08:16:07.316Z,14.60
2022-10-18T08:18:34.439Z,14.80
2022-10-18T08:21:01.968Z,14.90
2022-10-18T08:23:28.715Z,15.10
2022-10-18T08:25:55.476Z,15.30
2022-10-18T08:28:22.685Z,15.60
2022-10-18T08:30:49.362Z,15.70
2022-10-18T08:33:16.021Z,15.70
2022-10-18T08:35:57.913Z,15.70
2022-10-18T08:38:25.015Z,15.60
2022-10-18T08:40:52.217Z,15.60
2022-10-18T08:43:26.645Z,15.60
2022-10-18T08:45:54.699Z,15.60
2022-10-18T08:48:48.382Z,15.60
2022-10-18T08:51:35.363Z,15.60
2022-10-18T08:54:15.795Z,15.60
2022-10-18T08:56:47.686Z,15.60
2022-10-18T08:59:14.430Z,15.70
2022-10-18T09:02:25.568Z,15.70
2022-10-18T09:05:04.937Z,15.70
2022-10-18T09:08:10.287Z,15.70
2022-10-18T09:10:43.687Z,15.80
2022-10-18T09:13:44.134Z,15.80
2022-10-18T09:16:17.491Z,16.00
2022-10-18T09:19:23.421Z,16.10
2022-10-18T09:21:55.676Z,16.20
2022-10-18T09:24:41.256Z,16.30
2022-10-18T09:27:23.271Z,16.30
2022-10-18T09:30:18.930Z,16.30
2022-10-18T09:33:11.519Z,16.40
2022-10-18T09:36:06.503Z,16.60
2022-10-18T09:38:45.420Z,16.70
2022-10-18T09:41:43.679Z,16.80
2022-10-18T09:44:23.627Z,17.00
2022-10-18T09:46:57.626Z,17.10
2022-10-18T09:49:30.508Z,17.20
2022-10-18T09:52:02.262Z,17.30
2022-10-18T09:54:50.415Z,17.30
2022-10-18T09:57:45.248Z,17.50
2022-10-18T10:00:26.203Z,17.60
2022-10-18T10:02:53.069Z,17.70
2022-10-18T10:05:20.269Z,17.80
2022-10-18T10:07:48.792Z,17.80
2022-10-18T10:10:25.283Z,18.00
2022-10-18T10:13:14.068Z,18.10
2022-10-18T10:15:45.755Z,18.30
2022-10-18T10:18:21.237Z,18.40
2022-10-18T10:20:55.521Z,18.50
2022-10-18T10:23:39.123Z,18.60
2022-10-18T10:26:25.473Z,18.60
2022-10-18T10:28:53.243Z,18.60
2022-10-18T10:31:27.850Z,18.70
2022-10-18T10:34:15.078Z,18.70
2022-10-18T10:36:50.733Z,18.80
2022-10-18T10:39:19.582Z,18.90
2022-10-18T10:41:52.920Z,18.90
2022-10-18T10:44:22.753Z,19.00
2022-10-18T10:46:51.064Z,19.00
2022-10-18T10:49:39.611Z,19.10
2022-10-18T10:52:26.301Z,19.20
2022-10-18T10:55:05.931Z,19.20
2022-10-18T10:57:46.116Z,19.20
2022-10-18T11:00:42.975Z,19.30
2022-10-18T11:03:29.013Z,19.30
2022-10-18T11:05:57.990Z,19.30
2022-10-18T11:08:36.413Z,19.40
2022-10-18T11:11:27.690Z,19.40
2022-10-18T11:17:11.070Z,19.50
2022-10-18T11:19:40.741Z,19.50
2022-10-18T11:22:15.077Z,19.60
2022-10-18T11:24:42.042Z,19.60
2022-10-18T11:27:21.999Z,19.60
2022-10-18T11:30:21.182Z,19.70
2022-10-18T11:32:53.963Z,19.70
2022-10-18T11:35:41.752Z,19.70
2022-10-18T11:38:31.063Z,19.80
2022-10-18T11:41:22.204Z,19.90
2022-10-18T11:44:03.900Z,20.00
2022-10-18T11:46:46.385Z,20.10
2022-10-18T11:52:28.460Z,20.30
2022-10-18T11:55:09.169Z,20.40
2022-10-18T12:00:53.400Z,20.50
2022-10-18T12:03:50.678Z,20.50
2022-10-18T12:06:22.654Z,20.60
2022-10-18T12:09:03.594Z,20.70
2022-10-18T12:14:36.559Z,20.80
2022-10-18T12:19:59.696Z,21.00
2022-10-18T12:22:34.737Z,21.10
2022-10-18T12:25:02.025Z,21.10
2022-10-18T12:30:47.043Z,21.20
2022-10-18T12:33:29.282Z,21.30
2022-10-18T12:36:20.949Z,21.30
2022-10-18T12:39:09.047Z,21.30
2022-10-18T12:41:37.191Z,21.30
2022-10-18T12:44:29.319Z,21.40
2022-10-18T12:46:58.667Z,21.40
2022-10-18T12:49:32.196Z,21.50
2022-10-18T12:52:02.158Z,21.50
2022-10-18T12:54:31.782Z,21.50
2022-10-18T12:57:00.966Z,21.60
2022-10-18T12:59:29.860Z,21.60
2022-10-18T13:02:05.427Z,21.60
2022-10-18T13:04:35.276Z,21.70
2022-10-18T13:07:33.511Z,21.70
2022-10-18T13:10:13.000Z,21.70
2022-10-18T13:13:38.190Z,21.70
2022-10-18T13:16:25.726Z,21.70
2022-10-18T13:19:00.741Z,21.80
2022-10-18T13:21:53.270Z,21.80
2022-10-18T13:24:41.949Z,21.80
2022-10-18T13:27:36.999Z,21.80
2022-10-18T13:30:18.728Z,21.80
2022-10-18T13:32:49.419Z,21.80
2022-10-18T13:35:45.922Z,21.80
2022-10-18T13:38:35.001Z,21.80
2022-10-18T13:41:07.752Z,21.80
2022-10-18T13:43:53.074Z,21.80
2022-10-18T13:46:25.516Z,21.80
2022-10-18T13:48:54.768Z,21.80
2022-10-18T13:51:43.161Z,21.80
2022-10-18T13:54:32.947Z,21.80
2022-10-18T13:57:15.074Z,21.80
2022-10-18T14:00:18.880Z,21.80
2022-10-18T14:03:03.857Z,21.80
2022-10-18T14:05:50.553Z,21.80
2022-10-18T14:08:40.202Z,21.80
2022-10-18T14:11:37.119Z,21.70
2022-10-18T14:14:43.928Z,21.80
2022-10-18T14:17:42.657Z,21.70
2022-10-18T14:20:49.108Z,21.70
2022-10-18T14:23:31.252Z,21.60
2022-10-18T14:26:31.565Z,21.60
2022-10-18T14:29:17.695Z,21.50
2022-10-18T14:31:52.935Z,21.50
2022-10-18T14:34:21.859Z,21.40
2022-10-18T14:36:49.573Z,21.30
2022-10-18T14:39:27.521Z,21.30
2022-10-18T14:41:56.116Z,21.30
2022-10-18T14:44:25.820Z,21.30
2022-10-18T14:47:16.267Z,21.20
2022-10-18T14:49:44.899Z,21.10
2022-10-18T14:52:17.093Z,21.10
2022-10-18T14:54:45.454Z,21.10
2022-10-18T14:57:33.722Z,21.00
2022-10-18T15:00:04.307Z,21.00
2022-10-18T15:02:37.749Z,20.90
2022-10-18T15:05:24.136Z,20.90
2022-10-18T15:07:52.271Z,20.80
2022-10-18T15:10:37.703Z,20.80
2022-10-18T15:13:12.822Z,20.80
2022-10-18T15:15:41.069Z,20.80
2022-10-18T15:18:19.152Z,20.70
2022-10-18T15:20:48.495Z,20.70
2022-10-18T15:23:24.426Z,20.60
2022-10-18T15:25:55.055Z,20.60
2022-10-18T15:28:33.757Z,20.50
2022-10-18T15:31:02.008Z,20.40
2022-10-18T15:33:34.400Z,20.40
2022-10-18T15:36:25.891Z,20.30
2022-10-18T15:38:52.758Z,20.30
2022-10-18T15:41:39.833Z,20.20
2022-10-18T15:44:11.646Z,20.20
2022-10-18T15:46:40.815Z,20.10
2022-10-18T15:49:45.357Z,20.10
2022-10-18T15:52:39.300Z,20.00
2022-10-18T15:55:29.249Z,19.90
2022-10-18T15:58:29.068Z,19.90
2022-10-18T16:00:59.690Z,19.80
2022-10-18T16:03:28.801Z,19.70
2022-10-18T16:06:03.476Z,19.60
2022-10-18T16:08:37.146Z,19.50
2022-10-18T16:11:04.102Z,19.40
2022-10-18T16:13:30.997Z,19.30
2022-10-18T16:15:59.683Z,19.20
2022-10-18T16:18:27.188Z,19.10
2022-10-18T16:20:56.067Z,19.10
2022-10-18T16:23:29.469Z,19.00
2022-10-18T16:25:57.553Z,18.80
2022-10-18T16:28:31.740Z,18.80
2022-10-18T16:31:01.964Z,18.70
2022-10-18T16:33:28.813Z,18.60
2022-10-18T16:35:55.889Z,18.60
2022-10-18T16:38:32.666Z,18.50
2022-10-18T16:41:06.113Z,18.50
2022-10-18T16:43:34.713Z,18.40
2022-10-18T16:46:03.193Z,18.40
2022-10-18T16:48:30.515Z,18.40
2022-10-18T16:50:58.174Z,18.30
2022-10-18T16:53:26.154Z,18.30
2022-10-18T16:55:57.006Z,18.30
2022-10-18T17:00:56.938Z,18.30
2022-10-18T17:03:25.672Z,18.30
2022-10-18T17:05:53.418Z,18.30
2022-10-18T17:08:25.714Z,18.30
2022-10-18T17:10:54.699Z,18.30
2022-10-18T17:13:22.757Z,18.30
2022-10-18T17:15:50.556Z,18.20
2022-10-18T17:18:22.448Z,18.20
2022-10-18T17:20:50.043Z,18.20
2022-10-18T17:23:16.971Z,18.20
2022-10-18T17:25:57.502Z,18.20
2022-10-18T17:28:33.401Z,18.20
2022-10-18T17:31:00.210Z,18.20
2022-10-18T17:33:27.115Z,18.20
2022-10-18T17:35:54.921Z,18.30
2022-10-18T17:38:21.673Z,18.30
2022-10-18T17:40:49.846Z,18.30
2022-10-18T17:43:16.588Z,18.30
2022-10-18T17:45:49.207Z,18.20
2022-10-18T17:48:17.415Z,18.20
2022-10-18T17:50:44.201Z,18.20
2022-10-18T17:53:13.107Z,18.20
2022-10-18T17:55:43.085Z,18.20
2022-10-18T17:58:10.826Z,18.10
2022-10-18T18:00:37.601Z,18.20
2022-10-18T18:03:05.567Z,18.10
2022-10-18T18:05:34.245Z,18.10
2022-10-18T18:08:03.845Z,18.00
2022-10-18T18:10:33.407Z,17.90
2022-10-18T18:13:00.777Z,17.90
2022-10-18T18:15:27.740Z,17.90
2022-10-18T18:17:57.696Z,17.90
2022-10-18T18:20:26.087Z,17.80
2022-10-18T18:22:53.038Z,17.80
2022-10-18T18:25:20.464Z,17.70
2022-10-18T18:27:48.048Z,17.70
2022-10-18T18:30:17.917Z,17.70
2022-10-18T18:32:45.792Z,17.60
2022-10-18T18:35:12.759Z,17.50
2022-10-18T18:37:41.884Z,17.50
2022-10-18T18:40:08.908Z,17.40
2022-10-18T18:42:36.033Z,17.30
2022-10-18T18:45:02.966Z,17.20
2022-10-18T18:47:35.306Z,17.10
2022-10-18T18:50:02.433Z,17.10
2022-10-18T18:52:32.576Z,17.00
2022-10-18T18:55:00.419Z,16.90
2022-10-18T18:57:28.323Z,16.80
2022-10-18T18:59:55.067Z,16.70
2022-10-18T19:02:21.949Z,16.70
2022-10-18T19:04:48.761Z,16.60
2022-10-18T19:07:15.514Z,16.50
2022-10-18T19:09:44.955Z,16.40
2022-10-18T19:12:11.787Z,16.40
2022-10-18T19:14:38.535Z,16.30
2022-10-18T19:17:07.125Z,16.20
2022-10-18T19:19:34.234Z,16.10
2022-10-18T19:22:04.967Z,16.10
2022-10-18T19:24:35.782Z,16.00
2022-10-18T19:27:12.576Z,16.00
2022-10-18T19:29:48.763Z,15.80
2022-10-18T19:32:17.095Z,15.80
2022-10-18T19:34:44.843Z,15.80
2022-10-18T19:37:17.467Z,15.70
2022-10-18T19:39:45.334Z,15.60
2022-10-18T19:42:15.768Z,15.60
2022-10-18T19:44:45.469Z,15.50
2022-10-18T19:47:14.553Z,15.50
2022-10-18T19:49:44.512Z,15.40
2022-10-18T19:52:12.411Z,15.40
2022-10-18T19:54:39.441Z,15.40
2022-10-18T19:57:06.890Z,15.30
2022-10-18T19:59:35.343Z,15.30
2022-10-18T20:02:04.439Z,15.30
2022-10-18T20:04:38.196Z,15.30
2022-10-18T20:07:05.028Z,15.30
2022-10-18T20:09:31.768Z,15.20
2022-10-18T20:11:58.567Z,15.20
2022-10-18T20:14:25.460Z,15.20
2022-10-18T20:16:52.293Z,15.10
2022-10-18T20:19:19.032Z,15.10
2022-10-18T20:21:45.783Z,15.10
2022-10-18T20:24:12.568Z,15.00
2022-10-18T20:26:39.945Z,15.00
2022-10-18T20:29:07.697Z,14.90
2022-10-18T20:31:38.273Z,14.90
2022-10-18T20:34:08.147Z,14.80
2022-10-18T20:36:35.465Z,14.80
2022-10-18T20:39:02.981Z,14.80
2022-10-18T20:41:31.167Z,14.60
2022-10-18T20:44:00.317Z,14.60
2022-10-18T20:46:29.756Z,14.60
2022-10-18T20:48:59.951Z,14.50
2022-10-18T20:51:27.532Z,14.50
2022-10-18T20:53:56.159Z,14.40
2022-10-18T20:56:26.433Z,14.30
2022-10-18T20:58:56.547Z,14.30
2022-10-18T21:01:29.260Z,14.30
2022-10-18T21:03:57.786Z,14.30
2022-10-18T21:06:29.703Z,14.20
2022-10-18T21:09:08.646Z,14.20
2022-10-18T21:11:37.667Z,14.10
2022-10-18T21:14:05.675Z,14.10
2022-10-18T21:16:34.927Z,14.00
2022-10-18T21:19:16.828Z,14.00
2022-10-18T21:21:46.477Z,13.90
2022-10-18T21:24:14.011Z,13.90
2022-10-18T21:26:40.888Z,13.80
2022-10-18T21:29:08.241Z,13.80
2022-10-18T21:31:37.480Z,13.80
2022-10-18T21:34:17.326Z,13.80
2022-10-18T21:36:46.194Z,13.80
2022-10-18T21:39:16.173Z,13.80
2022-10-18T21:41:45.551Z,13.80
2022-10-18T21:44:12.782Z,13.80
2022-10-18T21:46:40.653Z,13.90
2022-10-18T21:49:07.661Z,13.90
2022-10-18T21:51:37.084Z,14.00
2022-10-18T21:54:08.751Z,14.00
2022-10-18T21:56:35.950Z,14.10
2022-10-18T21:59:03.422Z,14.10
2022-10-18T22:01:34.143Z,14.20
2022-10-18T22:04:02.692Z,14.20
2022-10-18T22:06:32.357Z,14.30
2022-10-18T22:09:03.416Z,14.30
2022-10-18T22:11:42.394Z,14.30
2022-10-18T22:14:09.295Z,14.30
2022-10-18T22:16:36.084Z,14.40
2022-10-18T22:19:04.760Z,14.40
2022-10-18T22:21:32.142Z,14.40
2022-10-18T22:23:59.905Z,14.40
2022-10-18T22:26:27.915Z,14.40
2022-10-18T22:29:00.502Z,14.40
2022-10-18T22:31:29.912Z,14.40
2022-10-18T22:34:06.977Z,14.40
2022-10-18T22:36:34.430Z,14.50
2022-10-18T22:39:01.349Z,14.50
2022-10-18T22:41:28.380Z,14.50
2022-10-18T22:43:57.336Z,14.50
2022-10-18T22:46:26.475Z,14.50
2022-10-18T22:48:53.214Z,14.50
2022-10-18T22:51:20.022Z,14.50
2022-10-18T22:53:47.115Z,14.50
2022-10-18T22:56:16.932Z,14.60
2022-10-18T22:58:43.687Z,14.50
2022-10-18T23:01:12.887Z,14.60
2022-10-18T23:03:39.816Z,14.60
2022-10-18T23:06:23.474Z,14.50
2022-10-18T23:08:51.045Z,14.60
2022-10-18T23:11:17.768Z,14.50
2022-10-18T23:13:44.793Z,14.60
2022-10-18T23:16:11.751Z,14.60
2022-10-18T23:21:08.603Z,14.50
2022-10-18T23:23:36.905Z,14.50
2022-10-18T23:26:13.087Z,14.40
2022-10-18T23:28:43.106Z,14.40
2022-10-18T23:31:10.780Z,14.30
2022-10-18T23:33:39.876Z,14.30
2022-10-18T23:36:07.767Z,14.20
2022-10-18T23:38:36.036Z,14.10
2022-10-18T23:41:03.872Z,14.10
2022-10-18T23:43:30.873Z,13.90
2022-10-18T23:45:57.552Z,13.80
2022-10-18T23:48:24.663Z,13.80
2022-10-18T23:50:51.466Z,13.70
2022-10-18T23:53:19.643Z,13.60
2022-10-18T23:55:56.492Z,13.50
2022-10-18T23:58:24.224Z,13.40
